createdAt,value
2024-04-25T00:01:38.652Z,8.77
2024-04-25T00:04:08.786Z,12.83
2024-04-25T00:06:38.915Z,8.10
2024-04-25T00:09:08.879Z,9.97
2024-04-25T00:11:41.620Z,8.33
2024-04-25T00:14:12.478Z,8.03
2024-04-25T00:16:42.511Z,9.53
2024-04-25T00:19:12.651Z,8.23
2024-04-25T00:21:42.646Z,7.70
2024-04-25T00:24:12.643Z,11.97
2024-04-25T00:26:45.347Z,8.27
2024-04-25T00:29:15.380Z,8.07
2024-04-25T00:31:45.512Z,13.17
2024-04-25T00:34:15.503Z,9.40
2024-04-25T00:36:46.034Z,7.67
2024-04-25T00:39:16.106Z,8.37
2024-04-25T00:41:48.782Z,9.63
2024-04-25T00:44:18.776Z,12.73
2024-04-25T00:46:50.953Z,11.47
2024-04-25T00:49:21.252Z,10.07
2024-04-25T00:51:52.848Z,10.47
2024-04-25T00:54:22.855Z,12.50
2024-04-25T00:56:56.712Z,11.03
2024-04-25T00:59:30.722Z,10.83
2024-04-25T01:02:04.385Z,14.03
2024-04-25T01:04:36.641Z,13.13
2024-04-25T01:07:07.656Z,12.53
2024-04-25T01:09:37.715Z,10.87
2024-04-25T01:12:11.450Z,11.47
2024-04-25T01:14:41.625Z,12.40
2024-04-25T01:17:11.702Z,11.07
2024-04-25T01:19:41.706Z,11.07
2024-04-25T01:22:12.718Z,13.40
2024-04-25T01:24:45.339Z,17.00
2024-04-25T01:27:16.873Z,10.80
2024-04-25T01:29:47.586Z,10.60
2024-04-25T01:32:18.474Z,17.80
2024-04-25T01:34:49.320Z,13.00
2024-04-25T01:37:19.459Z,10.83
2024-04-25T01:39:52.149Z,10.97
2024-04-25T01:42:22.218Z,11.50
2024-04-25T01:44:52.242Z,12.10
2024-04-25T01:47:22.548Z,11.77
2024-04-25T01:49:52.631Z,12.20
2024-04-25T01:52:22.585Z,14.13
2024-04-25T01:54:55.320Z,11.80
2024-04-25T01:57:25.350Z,11.53
2024-04-25T01:59:55.403Z,12.33
2024-04-25T02:02:25.499Z,13.67
2024-04-25T02:04:55.585Z,10.97
2024-04-25T02:07:25.669Z,11.00
2024-04-25T02:09:58.279Z,14.47
2024-04-25T02:12:28.645Z,10.37
2024-04-25T02:14:58.799Z,14.87
2024-04-25T02:17:29.318Z,14.33
2024-04-25T02:19:59.456Z,12.20
2024-04-25T02:22:45.425Z,12.10
2024-04-25T02:25:21.346Z,16.73
2024-04-25T02:27:51.553Z,14.40
2024-04-25T02:30:21.596Z,15.17
2024-04-25T02:32:51.732Z,14.83
2024-04-25T02:35:21.823Z,15.40
2024-04-25T02:37:51.879Z,13.67
2024-04-25T02:40:24.512Z,16.73
2024-04-25T02:42:51.934Z,15.03
2024-04-25T02:45:21.960Z,15.30
2024-04-25T02:47:49.444Z,17.30
2024-04-25T02:50:19.623Z,14.33
2024-04-25T02:52:47.055Z,13.77
2024-04-25T02:55:17.326Z,13.87
2024-04-25T02:57:47.309Z,15.03
2024-04-25T03:00:18.974Z,18.67
2024-04-25T03:02:46.576Z,14.77
2024-04-25T03:05:16.664Z,17.10
2024-04-25T03:07:44.042Z,19.20
2024-04-25T03:10:14.237Z,13.07
2024-04-25T03:12:41.629Z,16.80
2024-04-25T03:15:14.402Z,14.80
2024-04-25T03:17:41.928Z,16.27
2024-04-25T03:20:14.106Z,14.33
2024-04-25T03:22:41.606Z,15.67
2024-04-25T03:25:11.613Z,16.53
2024-04-25T03:27:40.547Z,15.03
2024-04-25T03:30:14.358Z,13.87
2024-04-25T03:32:41.852Z,16.70
2024-04-25T03:35:12.082Z,13.17
2024-04-25T03:37:42.130Z,18.03
2024-04-25T03:40:13.125Z,14.77
2024-04-25T03:42:43.141Z,14.57
2024-04-25T03:45:15.790Z,14.40
2024-04-25T03:47:45.899Z,15.50
2024-04-25T03:50:16.049Z,15.60
2024-04-25T03:52:46.082Z,15.73
2024-04-25T03:55:16.429Z,16.20
2024-04-25T03:57:46.590Z,17.33
2024-04-25T04:00:19.741Z,16.13
2024-04-25T04:02:49.968Z,14.20
2024-04-25T04:05:21.267Z,15.73
2024-04-25T04:07:51.901Z,13.47
2024-04-25T04:10:21.920Z,14.03
2024-04-25T04:12:52.005Z,15.53
2024-04-25T04:15:24.661Z,15.83
2024-04-25T04:17:54.744Z,14.63
2024-04-25T04:20:24.903Z,14.50
2024-04-25T04:22:52.274Z,16.60
2024-04-25T04:25:22.368Z,12.27
2024-04-25T04:27:52.420Z,13.00
2024-04-25T04:30:25.078Z,14.07
2024-04-25T04:32:55.389Z,17.90
2024-04-25T04:35:25.443Z,13.43
2024-04-25T04:37:55.581Z,13.63
2024-04-25T04:40:25.591Z,12.20
2024-04-25T04:42:55.666Z,13.03
2024-04-25T04:45:28.524Z,13.47
2024-04-25T04:47:58.901Z,12.83
2024-04-25T04:50:29.051Z,10.93
2024-04-25T04:52:59.155Z,17.70
2024-04-25T04:55:29.145Z,13.00
2024-04-25T04:57:59.324Z,10.73
2024-04-25T05:00:33.649Z,11.47
2024-04-25T05:03:03.810Z,10.97
2024-04-25T05:05:33.997Z,10.47
2024-04-25T05:08:04.100Z,11.57
2024-04-25T05:10:34.132Z,12.03
2024-04-25T05:13:04.382Z,10.10
2024-04-25T05:15:36.989Z,11.27
2024-04-25T05:18:07.354Z,10.40
2024-04-25T05:20:37.906Z,10.50
2024-04-25T05:23:08.883Z,10.87
2024-04-25T05:25:38.931Z,9.50
2024-04-25T05:28:09.562Z,10.63
2024-04-25T05:30:42.226Z,10.87
2024-04-25T05:33:12.490Z,8.50
2024-04-25T05:35:42.927Z,8.47
2024-04-25T05:38:13.068Z,8.43
2024-04-25T05:40:43.095Z,8.43
2024-04-25T05:43:14.301Z,10.80
2024-04-25T05:45:47.207Z,10.33
2024-04-25T05:48:17.802Z,7.13
2024-04-25T05:50:48.028Z,7.87
2024-04-25T05:53:19.716Z,9.63
2024-04-25T05:55:49.704Z,10.33
2024-04-25T05:58:19.739Z,8.57
2024-04-25T06:00:52.409Z,8.87
2024-04-25T06:03:22.486Z,9.03
2024-04-25T06:05:53.159Z,8.40
2024-04-25T06:08:23.333Z,11.20
2024-04-25T06:10:53.519Z,9.37
2024-04-25T06:13:24.072Z,8.63
2024-04-25T06:15:56.789Z,6.40
2024-04-25T06:18:26.917Z,8.90
2024-04-25T06:20:57.164Z,7.77
2024-04-25T06:23:27.228Z,9.20
2024-04-25T06:25:57.392Z,6.70
2024-04-25T06:28:27.439Z,6.80
2024-04-25T06:31:01.512Z,6.20
2024-04-25T06:33:31.696Z,6.20
2024-04-25T06:36:01.869Z,5.50
2024-04-25T06:38:32.004Z,5.27
2024-04-25T06:41:02.186Z,4.83
2024-04-25T06:43:35.106Z,5.80
2024-04-25T06:46:08.940Z,5.40
2024-04-25T06:48:39.398Z,6.43
2024-04-25T06:51:09.663Z,4.93
2024-04-25T06:53:39.778Z,5.17
2024-04-25T06:56:10.718Z,6.57
2024-04-25T06:58:41.098Z,5.10
2024-04-25T07:01:13.847Z,4.80
2024-04-25T07:03:43.867Z,8.80
2024-04-25T07:06:14.314Z,10.60
2024-04-25T07:08:44.428Z,5.97
2024-04-25T07:11:14.606Z,6.67
2024-04-25T07:13:45.591Z,8.63
2024-04-25T07:16:18.245Z,12.67
2024-04-25T07:18:48.442Z,7.60
2024-04-25T07:21:18.589Z,6.60
2024-04-25T07:23:48.627Z,9.57
2024-04-25T07:26:18.781Z,99.87
2024-04-25T07:28:49.209Z,52.33
2024-04-25T07:31:21.908Z,11.97
2024-04-25T07:33:52.052Z,6.67
2024-04-25T07:36:24.143Z,8.47
2024-04-25T07:38:54.337Z,20.20
2024-04-25T07:41:24.447Z,102.07
2024-04-25T07:43:54.546Z,54.40
2024-04-25T07:46:28.098Z,85.27
2024-04-25T07:48:58.604Z,34.93
2024-04-25T07:51:28.702Z,9.17
2024-04-25T07:53:58.684Z,10.30
2024-04-25T07:56:28.712Z,20.53
2024-04-25T07:58:58.829Z,31.00
2024-04-25T08:01:31.759Z,18.00
2024-04-25T08:04:02.847Z,25.50
2024-04-25T08:06:35.536Z,19.43
2024-04-25T08:09:07.121Z,15.77
2024-04-25T08:11:37.645Z,25.50
2024-04-25T08:14:07.729Z,17.53
2024-04-25T08:16:40.593Z,20.60
2024-04-25T08:19:10.719Z,15.53
2024-04-25T08:21:40.898Z,23.30
2024-04-25T08:24:14.087Z,6.90
2024-04-25T08:26:44.179Z,8.33
2024-04-25T08:29:14.533Z,12.50
2024-04-25T08:31:47.377Z,17.40
2024-04-25T08:34:17.640Z,14.27
2024-04-25T08:36:47.991Z,8.87
2024-04-25T08:39:18.124Z,8.93
2024-04-25T08:41:49.706Z,7.37
2024-04-25T08:44:19.964Z,10.57
2024-04-25T08:46:53.808Z,7.70
2024-04-25T08:49:26.143Z,16.70
2024-04-25T08:51:57.681Z,9.57
2024-04-25T08:54:28.429Z,7.93
2024-04-25T08:56:58.576Z,10.50
2024-04-25T08:59:28.961Z,9.03
2024-04-25T09:02:03.547Z,5.07
2024-04-25T09:04:34.449Z,3.60
2024-04-25T09:07:13.621Z,9.00
2024-04-25T09:09:43.824Z,3.37
2024-04-25T09:12:14.171Z,4.97
2024-04-25T09:14:44.422Z,3.13
2024-04-25T09:17:20.094Z,5.40
2024-04-25T09:19:50.206Z,4.63
2024-04-25T09:22:21.292Z,8.40
2024-04-25T09:24:51.745Z,4.30
2024-04-25T09:27:22.341Z,3.57
2024-04-25T09:29:54.668Z,5.30
2024-04-25T09:32:27.608Z,8.83
2024-04-25T09:35:02.121Z,6.80
2024-04-25T09:37:35.010Z,3.40
2024-04-25T09:40:06.520Z,5.20
2024-04-25T09:42:39.604Z,3.80
2024-04-25T09:45:14.524Z,5.73
2024-04-25T09:47:54.550Z,11.50
2024-04-25T09:50:29.709Z,49.73
2024-04-25T09:53:09.834Z,74.90
2024-04-25T09:55:41.468Z,49.17
2024-04-25T09:58:27.670Z,49.20
2024-04-25T10:00:59.261Z,33.50
2024-04-25T10:03:33.507Z,50.87
2024-04-25T10:06:04.286Z,44.93
2024-04-25T10:08:34.714Z,78.73
2024-04-25T10:11:08.896Z,40.40
2024-04-25T10:13:51.678Z,33.83
2024-04-25T10:16:21.954Z,42.63
2024-04-25T10:18:56.845Z,99.60
2024-04-25T10:21:27.064Z,37.33
2024-04-25T10:24:11.386Z,63.27
2024-04-25T10:26:41.504Z,38.40
2024-04-25T10:29:11.633Z,53.83
2024-04-25T10:31:44.916Z,21.40
2024-04-25T10:34:17.968Z,12.83
2024-04-25T10:36:49.574Z,17.93
2024-04-25T10:39:20.073Z,6.63
2024-04-25T10:41:50.424Z,43.83
2024-04-25T10:44:20.763Z,17.60
2024-04-25T10:46:51.696Z,15.67
2024-04-25T10:49:24.947Z,13.17
2024-04-25T10:51:55.580Z,22.87
2024-04-25T10:54:25.855Z,27.60
2024-04-25T10:56:56.261Z,12.77
2024-04-25T10:59:32.149Z,14.47
2024-04-25T11:02:03.483Z,16.37
2024-04-25T11:04:41.092Z,9.50
2024-04-25T11:07:14.210Z,5.33
2024-04-25T11:09:44.341Z,22.67
2024-04-25T11:12:15.075Z,30.37
2024-04-25T11:14:45.319Z,39.37
2024-04-25T11:17:17.637Z,11.47
2024-04-25T11:19:51.412Z,30.43
2024-04-25T11:22:30.629Z,50.10
2024-04-25T11:25:19.405Z,29.27
2024-04-25T11:27:52.127Z,69.97
2024-04-25T11:30:20.064Z,91.40
2024-04-25T11:32:50.616Z,61.80
2024-04-25T11:35:23.708Z,56.00
2024-04-25T11:37:58.758Z,59.50
2024-04-25T11:40:41.347Z,32.83
2024-04-25T11:43:11.688Z,33.57
2024-04-25T11:45:39.508Z,12.50
2024-04-25T11:48:12.105Z,9.77
2024-04-25T11:50:45.370Z,11.83
2024-04-25T11:53:15.708Z,23.10
2024-04-25T11:55:46.977Z,13.93
2024-04-25T11:58:17.384Z,15.00
2024-04-25T12:00:49.753Z,12.00
2024-04-25T12:03:20.510Z,18.97
2024-04-25T12:05:53.628Z,5.80
2024-04-25T12:08:23.766Z,6.23
2024-04-25T12:10:54.576Z,6.90
2024-04-25T12:13:24.812Z,5.00
2024-04-25T12:15:54.985Z,8.00
2024-04-25T12:18:28.237Z,10.37
2024-04-25T12:21:03.751Z,11.47
2024-04-25T12:23:35.540Z,5.20
2024-04-25T12:26:06.378Z,3.57
2024-04-25T12:28:36.417Z,4.83
2024-04-25T12:31:08.964Z,6.57
2024-04-25T12:33:41.191Z,5.73
2024-04-25T12:36:14.263Z,2.47
2024-04-25T12:38:44.475Z,5.13
2024-04-25T12:41:14.746Z,2.57
2024-04-25T12:43:45.879Z,4.67
2024-04-25T12:46:16.037Z,6.03
2024-04-25T12:48:46.991Z,3.57
2024-04-25T12:51:19.784Z,4.00
2024-04-25T12:53:49.920Z,5.27
2024-04-25T12:56:20.412Z,3.83
2024-04-25T12:58:50.744Z,3.33
2024-04-25T13:01:20.725Z,3.80
2024-04-25T13:03:52.776Z,2.30
2024-04-25T13:06:25.495Z,2.47
2024-04-25T13:08:55.451Z,3.87
2024-04-25T13:11:25.614Z,6.43
2024-04-25T13:13:55.609Z,2.60
2024-04-25T13:16:27.978Z,3.37
2024-04-25T13:18:58.241Z,9.80
2024-04-25T13:21:31.320Z,4.83
2024-04-25T13:24:01.712Z,4.53
2024-04-25T13:26:35.399Z,8.23
2024-04-25T13:29:05.526Z,4.77
2024-04-25T13:31:36.526Z,3.80
2024-04-25T13:34:06.916Z,4.90
2024-04-25T13:36:39.735Z,8.30
2024-04-25T13:39:10.376Z,2.00
2024-04-25T13:41:40.476Z,1.70
2024-04-25T13:44:10.531Z,1.70
2024-04-25T13:46:40.567Z,2.10
2024-04-25T13:49:10.651Z,2.23
2024-04-25T13:51:43.344Z,1.87
2024-04-25T13:54:13.431Z,2.20
2024-04-25T13:56:43.524Z,1.40
2024-04-25T13:59:13.620Z,1.60
2024-04-25T14:01:43.717Z,3.83
2024-04-25T14:04:14.087Z,3.17
2024-04-25T14:06:46.802Z,6.43
2024-04-25T14:09:16.894Z,1.97
2024-04-25T14:11:47.209Z,2.40
2024-04-25T14:14:21.853Z,1.47
2024-04-25T14:16:54.135Z,0.97
2024-04-25T14:19:24.986Z,2.33
2024-04-25T14:21:57.807Z,2.97
2024-04-25T14:24:28.656Z,10.17
2024-04-25T14:27:14.625Z,2.93
2024-04-25T14:29:45.232Z,2.07
2024-04-25T14:32:15.796Z,3.40
2024-04-25T14:34:46.115Z,1.97
2024-04-25T14:37:19.943Z,9.23
2024-04-25T14:39:50.147Z,2.20
2024-04-25T14:42:20.955Z,2.00
2024-04-25T14:44:51.639Z,1.93
2024-04-25T14:47:21.844Z,2.47
2024-04-25T14:49:51.950Z,2.93
2024-04-25T14:52:26.140Z,2.70
2024-04-25T14:54:56.188Z,3.00
2024-04-25T14:57:26.207Z,2.70
2024-04-25T14:59:56.286Z,2.20
2024-04-25T15:02:26.392Z,2.70
2024-04-25T15:04:58.174Z,2.90
2024-04-25T15:07:31.715Z,6.30
2024-04-25T15:10:01.781Z,4.53
2024-04-25T15:12:36.741Z,2.37
2024-04-25T15:15:12.516Z,3.20
2024-04-25T15:17:49.798Z,2.93
2024-04-25T15:20:21.799Z,3.17
2024-04-25T15:22:57.746Z,4.70
2024-04-25T15:25:29.797Z,1.90
2024-04-25T15:28:01.125Z,2.10
2024-04-25T15:30:32.369Z,1.90
2024-04-25T15:33:02.677Z,1.50
2024-04-25T15:35:32.887Z,2.17
2024-04-25T15:38:05.564Z,1.90
2024-04-25T15:40:35.615Z,1.83
2024-04-25T15:43:05.713Z,1.80
2024-04-25T15:45:35.770Z,3.50
2024-04-25T15:48:06.021Z,2.73
2024-04-25T15:50:37.126Z,2.07
2024-04-25T15:53:10.230Z,2.03
2024-04-25T15:55:40.553Z,1.83
2024-04-25T15:58:10.649Z,2.37
2024-04-25T16:00:44.995Z,2.10
2024-04-25T16:03:15.667Z,2.00
2024-04-25T16:05:46.862Z,2.53
2024-04-25T16:08:19.618Z,2.50
2024-04-25T16:10:49.704Z,2.50
2024-04-25T16:13:19.749Z,3.40
2024-04-25T16:15:49.897Z,2.67
2024-04-25T16:18:20.299Z,2.50
2024-04-25T16:20:51.163Z,2.93
2024-04-25T16:23:23.998Z,2.90
2024-04-25T16:25:54.097Z,3.27
2024-04-25T16:28:24.223Z,2.77
2024-04-25T16:30:54.572Z,3.07
2024-04-25T16:33:24.798Z,2.27
2024-04-25T16:35:55.727Z,2.97
2024-04-25T16:38:28.690Z,2.43
2024-04-25T16:40:58.834Z,3.87
2024-04-25T16:43:29.606Z,4.43
2024-04-25T16:46:02.737Z,3.67
2024-04-25T16:48:32.800Z,3.40
2024-04-25T16:51:02.973Z,5.50
2024-04-25T16:53:35.716Z,3.90
2024-04-25T16:56:05.952Z,3.83
2024-04-25T16:58:36.066Z,3.07
2024-04-25T17:01:06.149Z,2.33
2024-04-25T17:03:36.385Z,12.33
2024-04-25T17:06:06.686Z,4.53
2024-04-25T17:08:39.488Z,7.07
2024-04-25T17:11:09.626Z,4.97
2024-04-25T17:13:40.446Z,4.17
2024-04-25T17:16:11.023Z,3.10
2024-04-25T17:18:41.112Z,3.60
2024-04-25T17:21:13.658Z,4.70
2024-04-25T17:23:51.797Z,5.33
2024-04-25T17:26:21.878Z,5.10
2024-04-25T17:28:52.721Z,5.10
2024-04-25T17:31:23.236Z,3.73
2024-04-25T17:33:54.074Z,4.50
2024-04-25T17:36:24.155Z,5.20
2024-04-25T17:38:57.070Z,3.70
2024-04-25T17:41:27.243Z,4.13
2024-04-25T17:43:57.340Z,4.77
2024-04-25T17:46:27.631Z,3.90
2024-04-25T17:48:57.827Z,3.23
2024-04-25T17:51:32.157Z,3.90
2024-04-25T17:54:05.011Z,8.33
2024-04-25T17:56:35.186Z,6.43
2024-04-25T17:59:05.363Z,6.63
2024-04-25T18:01:35.856Z,9.60
2024-04-25T18:04:05.900Z,7.60
2024-04-25T18:06:35.983Z,4.67
2024-04-25T18:09:09.229Z,5.73
2024-04-25T18:11:39.487Z,3.83
2024-04-25T18:14:09.812Z,4.10
2024-04-25T18:16:40.036Z,3.93
2024-04-25T18:19:10.433Z,4.23
2024-04-25T18:21:40.741Z,3.47
2024-04-25T18:24:17.610Z,4.30
2024-04-25T18:26:48.960Z,4.27
2024-04-25T18:29:19.163Z,6.73
2024-04-25T18:31:51.181Z,4.83
2024-04-25T18:34:21.279Z,4.53
2024-04-25T18:36:51.687Z,6.20
2024-04-25T18:39:24.434Z,3.70
2024-04-25T18:41:52.129Z,3.60
2024-04-25T18:44:22.316Z,4.67
2024-04-25T18:46:52.392Z,7.00
2024-04-25T18:49:23.278Z,7.73
2024-04-25T18:51:53.643Z,5.10
2024-04-25T18:54:27.211Z,4.27
2024-04-25T18:56:57.844Z,5.33
2024-04-25T18:59:28.307Z,4.10
2024-04-25T19:01:58.384Z,3.50
2024-04-25T19:04:28.462Z,4.77
2024-04-25T19:06:58.612Z,3.37
2024-04-25T19:09:31.483Z,2.87
2024-04-25T19:12:02.176Z,5.27
2024-04-25T19:14:32.302Z,3.17
2024-04-25T19:17:02.441Z,2.43
2024-04-25T19:19:32.530Z,3.33
2024-04-25T19:22:02.985Z,4.07
2024-04-25T19:24:35.771Z,3.80
2024-04-25T19:27:06.262Z,4.47
2024-04-25T19:29:38.682Z,6.43
2024-04-25T19:32:09.731Z,4.03
2024-04-25T19:34:39.754Z,3.97
2024-04-25T19:37:09.823Z,3.33
2024-04-25T19:39:42.467Z,3.57
2024-04-25T19:42:16.208Z,3.00
2024-04-25T19:44:46.715Z,3.67
2024-04-25T19:47:17.133Z,3.70
2024-04-25T19:49:47.292Z,5.13
2024-04-25T19:52:17.776Z,3.67
2024-04-25T19:54:54.774Z,3.00
2024-04-25T19:57:25.384Z,2.17
2024-04-25T19:59:55.686Z,2.77
2024-04-25T20:02:30.773Z,2.40
2024-04-25T20:05:01.462Z,4.73
2024-04-25T20:07:31.990Z,3.60
2024-04-25T20:10:06.397Z,3.83
2024-04-25T20:12:39.412Z,3.47
2024-04-25T20:15:09.932Z,4.93
2024-04-25T20:17:56.372Z,8.40
2024-04-25T20:20:42.824Z,4.73
2024-04-25T20:23:17.669Z,5.60
2024-04-25T20:26:38.940Z,3.73
2024-04-25T20:29:09.570Z,4.53
2024-04-25T20:31:39.758Z,3.27
2024-04-25T20:34:10.351Z,4.20
2024-04-25T20:36:41.033Z,6.73
2024-04-25T20:39:11.302Z,6.37
2024-04-25T20:41:46.741Z,5.53
2024-04-25T20:44:17.528Z,4.13
2024-04-25T20:46:47.820Z,4.60
2024-04-25T20:49:18.148Z,3.80
2024-04-25T20:51:48.303Z,3.10
2024-04-25T20:54:18.726Z,4.63
2024-04-25T20:56:51.683Z,3.53
2024-04-25T20:59:24.768Z,4.50
2024-04-25T21:01:58.558Z,4.10
2024-04-25T21:04:28.977Z,4.53
2024-04-25T21:06:59.049Z,3.47
2024-04-25T21:09:30.463Z,6.93
2024-04-25T21:12:03.447Z,4.60
2024-04-25T21:14:35.481Z,3.67
2024-04-25T21:17:07.400Z,5.20
2024-04-25T21:19:37.600Z,4.37
2024-04-25T21:22:11.445Z,4.90
2024-04-25T21:24:42.831Z,5.00
2024-04-25T21:27:45.030Z,6.27
2024-04-25T21:30:13.674Z,4.77
2024-04-25T21:32:45.415Z,4.77
2024-04-25T21:35:15.997Z,3.97
2024-04-25T21:37:47.003Z,4.00
2024-04-25T21:40:17.725Z,4.57
2024-04-25T21:42:50.487Z,5.23
2024-04-25T21:45:20.565Z,4.17
2024-04-25T21:47:50.737Z,3.67
2024-04-25T21:50:20.995Z,5.37
2024-04-25T21:52:51.106Z,6.67
2024-04-25T21:55:24.218Z,8.43
2024-04-25T21:57:59.152Z,6.30
2024-04-25T22:00:31.152Z,5.47
2024-04-25T22:03:02.195Z,4.37
2024-04-25T22:05:32.386Z,6.73
2024-04-25T22:08:02.472Z,3.37
2024-04-25T22:10:32.505Z,5.43
2024-04-25T22:13:05.152Z,4.70
2024-04-25T22:15:35.320Z,5.17
2024-04-25T22:18:05.633Z,4.80
2024-04-25T22:20:35.799Z,5.93
2024-04-25T22:23:06.030Z,5.53
2024-04-25T22:25:35.989Z,6.37
2024-04-25T22:28:09.633Z,4.80
2024-04-25T22:30:40.073Z,4.10
2024-04-25T22:33:10.473Z,5.00
2024-04-25T22:35:40.687Z,5.30
2024-04-25T22:38:11.174Z,5.63
2024-04-25T22:40:41.468Z,3.60
2024-04-25T22:43:14.168Z,5.57
2024-04-25T22:45:44.661Z,4.37
2024-04-25T22:48:14.720Z,3.63
2024-04-25T22:50:45.390Z,3.70
2024-04-25T22:53:15.426Z,3.20
2024-04-25T22:55:45.455Z,3.10
2024-04-25T22:58:18.353Z,5.20
2024-04-25T23:00:48.479Z,4.33
2024-04-25T23:03:20.573Z,6.97
2024-04-25T23:05:51.275Z,3.50
2024-04-25T23:08:21.386Z,5.17
2024-04-25T23:10:51.339Z,3.13
2024-04-25T23:13:23.977Z,3.27
2024-04-25T23:15:54.205Z,3.77
2024-04-25T23:18:24.302Z,4.00
2024-04-25T23:20:54.412Z,4.00
2024-04-25T23:23:24.740Z,4.50
2024-04-25T23:25:54.776Z,4.87
2024-04-25T23:28:27.394Z,3.60
2024-04-25T23:30:57.441Z,3.47
2024-04-25T23:33:28.025Z,4.43
2024-04-25T23:35:58.407Z,3.57
2024-04-25T23:38:30.811Z,4.70
2024-04-25T23:41:00.803Z,5.97
2024-04-25T23:43:33.737Z,4.47
2024-04-25T23:46:03.837Z,5.00
2024-04-25T23:48:33.998Z,7.20
2024-04-25T23:51:05.175Z,3.30
2024-04-25T23:53:35.478Z,3.37
2024-04-25T23:56:05.854Z,3.70
2024-04-25T23:58:38.524Z,3.50
